Time;durP1;ratioP1;P1;durP2;ratioP2;P2;SDS_P1;SDS_P2;PMS_P1;PMS_P2;Temp;Humidity;BMP_temperature;BMP_pressure;BME280_temperature;BME280_humidity;BME280_pressure;Samples;Min_cycle;Max_cycle;Signal;HPM_P1;HPM_P2
2022/03/02 00:01:16;;;;;;;;;81.50;60.00;;;;;-0.96;58.78;100471.75;6283243;20;2885657;-44
2022/03/02 00:03:44;;;;;;;;;72.50;52.00;;;;;-1.01;59.20;100480.53;6280294;20;2498308;-43
2022/03/02 00:06:13;;;;;;;;;65.00;47.00;;;;;-1.20;59.14;100474.44;6282072;20;2878406;-43
2022/03/02 00:08:43;;;;;;;;;65.00;48.67;;;;;-1.25;60.05;100474.44;6285942;20;2877854;-43
2022/03/02 00:11:12;;;;;;;;;68.00;52.00;;;;;-1.55;61.91;100480.59;6311647;20;2859781;-44
2022/03/02 00:13:40;;;;;;;;;73.50;53.00;;;;;-1.52;61.96;100474.44;6283502;20;2882644;-43
2022/03/02 00:16:09;;;;;;;;;73.00;54.00;;;;;-1.40;60.19;100466.53;6281358;20;2870185;-45
2022/03/02 00:18:38;;;;;;;;;65.50;48.00;;;;;-1.07;58.40;100475.28;6283764;20;2854471;-43
2022/03/02 00:21:07;;;;;;;;;69.00;47.50;;;;;-0.87;56.40;100457.66;6279995;20;2508742;-43
2022/03/02 00:23:35;;;;;;;;;63.00;47.00;;;;;-1.31;57.03;100461.28;6278825;20;2493477;-43
2022/03/02 00:26:04;;;;;;;;;67.50;51.50;;;;;-1.21;56.75;100456.84;6284094;20;2863788;-44
2022/03/02 00:28:33;;;;;;;;;66.50;48.00;;;;;-1.24;56.96;100457.72;6281640;20;2889855;-45
2022/03/02 00:31:02;;;;;;;;;63.00;47.00;;;;;-1.14;56.40;100459.47;6284331;20;2880495;-43
2022/03/02 00:33:30;;;;;;;;;57.00;43.00;;;;;-1.20;57.26;100456.00;6279803;20;2864863;-45
2022/03/02 00:35:59;;;;;;;;;55.50;43.00;;;;;-1.75;59.00;100459.50;6283798;20;2879430;-43
2022/03/02 00:38:28;;;;;;;;;48.00;43.00;;;;;-1.78;59.78;100454.25;6279131;20;2873156;-43
2022/03/02 00:40:56;;;;;;;;;45.50;39.00;;;;;-1.58;59.15;100447.25;6281317;20;2500454;-42
2022/03/02 00:43:25;;;;;;;;;53.00;43.00;;;;;-1.36;58.07;100449.84;6283238;20;2869029;-42
2022/03/02 00:45:54;;;;;;;;;63.00;47.00;;;;;-1.68;59.80;100452.50;6282112;20;2855499;-44
2022/03/02 00:48:22;;;;;;;;;66.50;51.50;;;;;-1.43;58.66;100445.47;6279945;20;2500422;-42
2022/03/02 00:50:51;;;;;;;;;71.33;51.00;;;;;-1.12;56.71;100441.91;6281427;20;2894226;-43
2022/03/02 00:53:21;;;;;;;;;64.00;51.50;;;;;-1.39;57.65;100444.59;6311735;20;2853495;-43
2022/03/02 00:55:49;;;;;;;;;61.00;49.00;;;;;-0.95;55.89;100428.72;6285430;20;2854442;-43
2022/03/02 00:58:19;;;;;;;;;62.00;43.00;;;;;-1.04;55.62;100427.84;6284031;20;2883604;-45
2022/03/02 01:00:48;;;;;;;;;32.67;25.33;;;;;-1.21;55.64;100435.78;6314135;20;3575237;-43
2022/03/02 01:03:16;;;;;;;;;35.50;32.00;;;;;-1.16;55.05;100432.28;6313004;20;2500264;-44
2022/03/02 01:05:45;;;;;;;;;38.33;33.33;;;;;-1.13;54.88;100429.63;6283159;20;3604517;-43
2022/03/02 01:08:14;;;;;;;;;44.33;29.33;;;;;-0.99;54.62;100426.09;6282556;20;3605591;-44
2022/03/02 01:10:42;;;;;;;;;38.50;32.00;;;;;-1.06;54.45;100419.06;6277046;20;2855492;-43
2022/03/02 01:13:10;;;;;;;;;28.50;22.50;;;;;-0.86;53.26;100417.25;6284156;20;2835912;-43
2022/03/02 01:15:38;;;;;;;;;29.50;25.50;;;;;-0.89;52.97;100412.00;6278715;20;2500323;-43
2022/03/02 01:18:07;;;;;;;;;37.00;30.00;;;;;-1.23;53.59;100412.09;6281519;20;3598170;-44
2022/03/02 01:20:35;;;;;;;;;35.50;30.00;;;;;-0.95;52.88;100418.19;6307480;20;2500334;-44
2022/03/02 01:23:04;;;;;;;;;41.33;29.00;;;;;-1.03;54.20;100414.66;6283472;20;3599253;-44
2022/03/02 01:25:32;;;;;;;;;41.50;34.00;;;;;-1.02;52.97;100408.53;6279199;20;2494013;-45
2022/03/02 01:28:01;;;;;;;;;32.67;30.33;;;;;-1.21;53.70;100399.78;6283197;20;3586713;-44
2022/03/02 01:30:30;;;;;;;;;31.67;27.00;;;;;-0.68;52.86;100398.72;6278909;20;3590035;-44
2022/03/02 01:32:59;;;;;;;;;39.67;30.67;;;;;-0.63;52.65;100401.34;6278353;20;3601387;-46
2022/03/02 01:35:27;;;;;;;;;32.50;27.00;;;;;-0.58;52.30;100390.75;6277493;20;2500415;-48
2022/03/02 01:37:55;;;;;;;;;24.00;20.00;;;;;-0.63;52.35;100382.00;6283622;20;2815875;-45
2022/03/02 01:40:23;;;;;;;;;36.50;29.00;;;;;-0.55;52.11;100380.22;6276172;20;2500255;-49
2022/03/02 01:42:52;;;;;;;;;29.33;23.67;;;;;-0.51;51.84;100374.03;6281552;20;3578577;-43
2022/03/02 01:45:21;;;;;;;;;33.00;29.50;;;;;-0.52;51.57;100381.06;6285107;20;2854400;-44
2022/03/02 01:47:49;;;;;;;;;52.50;31.00;;;;;-0.84;51.96;100383.88;6278152;20;2498303;-44
2022/03/02 01:50:18;;;;;;;;;36.00;28.00;;;;;-0.96;53.11;100371.59;6280498;20;2855889;-44
2022/03/02 01:52:46;;;;;;;;;31.00;25.00;;;;;-0.73;52.39;100370.63;6280181;20;3583539;-44
2022/03/02 01:55:16;;;;;;;;;30.00;25.33;;;;;-0.97;52.55;100372.50;6280433;20;3579493;-43
2022/03/02 01:57:44;;;;;;;;;29.50;23.00;;;;;-0.74;51.94;100379.41;6314710;20;2839917;-43
2022/03/02 02:00:20;;;;;;;;;24.00;21.33;;;;;-0.93;53.87;100384.75;6278890;20;3560715;-46
2022/03/02 02:02:49;;;;;;;;;36.00;28.50;;;;;-1.24;55.27;100370.78;6310185;20;2866954;-45
2022/03/02 02:05:19;;;;;;;;;57.50;39.50;;;;;-1.32;55.72;100369.94;6280832;20;2889831;-45
2022/03/02 02:07:50;;;;;;;;;75.67;53.00;;;;;-1.59;56.64;100370.88;6278514;20;2880454;-45
2022/03/02 02:10:19;;;;;;;;;66.67;47.00;;;;;-1.56;57.41;100365.59;6306071;20;2870246;-43
2022/03/02 02:12:48;;;;;;;;;55.00;45.50;;;;;-1.75;57.31;100358.59;6310596;20;2861734;-43
2022/03/02 02:15:16;;;;;;;;;36.50;32.00;;;;;-1.29;56.51;100358.53;6278088;20;2500258;-43
2022/03/02 02:17:45;;;;;;;;;41.00;32.50;;;;;-1.19;55.59;100361.13;6280593;20;2864831;-43
2022/03/02 02:20:13;;;;;;;;;46.50;38.00;;;;;-1.05;55.52;100361.09;6276029;20;2861709;-43
2022/03/02 02:22:45;;;;;;;;;34.50;30.00;;;;;-1.34;55.70;100355.91;6276217;20;2500245;-43
2022/03/02 02:25:15;;;;;;;;;42.67;25.67;;;;;-1.28;55.54;100355.91;6280139;20;3630475;-44
2022/03/02 02:27:49;;;;;;;;;39.33;27.33;;;;;-1.11;54.49;100353.19;6281651;20;3588910;-44
2022/03/02 02:30:18;;;;;;;;;27.67;24.33;;;;;-0.98;53.96;100354.91;6275318;20;3569012;-44
2022/03/02 02:32:47;;;;;;;;;22.67;19.33;;;;;-1.05;53.78;100341.75;6310805;20;3568999;-44
2022/03/02 02:35:16;;;;;;;;;31.67;27.67;;;;;-1.10;53.75;100341.78;6310679;20;3592017;-45
2022/03/02 02:37:44;;;;;;;;;46.00;35.00;;;;;-1.00;53.53;100339.97;6279053;20;2500758;-43
2022/03/02 02:40:19;;;;;;;;;29.00;25.33;;;;;-1.11;53.71;100338.28;6283043;20;3574308;-44
2022/03/02 02:42:49;;;;;;;;;31.00;28.50;;;;;-1.70;55.79;100347.19;6318158;20;3527325;-44
2022/03/02 02:45:23;;;;;;;;;42.00;29.50;;;;;-1.40;55.56;100340.13;6312666;20;2874283;-45
2022/03/02 02:47:55;;;;;;;;;26.00;22.00;;;;;-1.83;56.18;100342.81;6286729;20;2711836;-51
2022/03/02 02:50:28;;;;;;;;;26.00;19.50;;;;;-2.13;57.84;100344.59;6281998;20;2826299;-47
2022/03/02 02:53:04;;;;;;;;;26.67;20.00;;;;;-2.04;58.51;100349.84;6306412;20;2844112;-49
2022/03/02 02:55:33;;;;;;;;;28.00;23.00;;;;;-1.64;57.11;100354.19;6314767;20;2839823;-47
2022/03/02 02:58:04;;;;;;;;;31.33;25.67;;;;;-1.66;56.61;100364.75;6281862;20;3585663;-49
2022/03/02 03:00:38;;;;;;;;;32.00;22.00;;;;;-1.63;56.19;100359.47;6310132;20;3589857;-50
2022/03/02 03:03:07;;;;;;;;;28.67;22.00;;;;;-1.34;55.33;100351.53;6315349;20;1818022;-46
2022/03/02 03:05:38;;;;;;;;;28.40;22.40;;;;;-1.45;55.14;100357.69;6337085;20;2831602;-47
2022/03/02 03:08:10;;;;;;;;;40.00;26.67;;;;;-1.91;56.41;100344.59;6313258;20;3605434;-49
2022/03/02 03:10:42;;;;;;;;;27.33;23.33;;;;;-1.73;55.85;100349.84;6281460;20;3566970;-49
2022/03/02 03:13:10;;;;;;;;;27.50;27.00;;;;;-1.52;55.16;100343.66;6315406;20;2837895;-49
2022/03/02 03:15:39;;;;;;;;;27.50;23.00;;;;;-1.72;55.69;100348.06;6286761;20;2827327;-53
2022/03/02 03:18:09;;;;;;;;;31.33;24.33;;;;;-2.04;56.73;100347.19;6283895;20;3573163;-53
2022/03/02 03:20:38;;;;;;;;;35.00;27.00;;;;;-3.19;64.27;100351.28;6316449;20;3603357;-51
2022/03/02 03:23:09;;;;;;;;;22.00;22.00;;;;;-2.23;60.31;100346.31;6284888;20;2833572;-48
2022/03/02 03:25:37;;;;;;;;;41.00;27.00;;;;;-2.30;59.54;100346.31;6282909;20;2870116;-49
2022/03/02 03:28:06;;;;;;;;;35.50;24.50;;;;;-2.52;59.80;100338.38;6285826;20;2857532;-49
2022/03/02 03:30:36;;;;;;;;;43.67;33.67;;;;;-2.34;60.01;100337.56;6283871;20;3600226;-46
2022/03/02 03:33:05;;;;;;;;;39.67;31.00;;;;;-2.07;58.10;100341.94;6282940;20;3609626;-49
2022/03/02 03:35:34;;;;;;;;;67.00;48.00;;;;;-1.96;57.63;100341.06;6284422;20;2885662;-50
2022/03/02 03:38:04;;;;;;;;;78.50;53.50;;;;;-2.21;57.80;100330.56;6285246;20;2880501;-49
2022/03/02 03:40:32;;;;;;;;;78.50;57.00;;;;;-1.75;56.99;100340.19;6281617;20;2880529;-51
2022/03/02 03:43:00;;;;;;;;;71.50;54.00;;;;;-1.59;55.99;100332.25;6281927;20;2500290;-50
2022/03/02 03:45:28;;;;;;;;;65.00;48.50;;;;;-1.69;55.62;100327.00;6281332;20;2867050;-47
2022/03/02 03:47:58;;;;;;;;;77.00;52.50;;;;;-1.79;56.90;100331.41;6285060;20;2877468;-49
2022/03/02 03:50:26;;;;;;;;;44.00;26.33;;;;;-1.87;56.39;100326.16;6282004;20;3572125;-47
2022/03/02 03:52:55;;;;;;;;;45.00;34.50;;;;;-1.66;55.66;100322.63;6313709;20;2869133;-46
2022/03/02 03:55:23;;;;;;;;;39.00;30.00;;;;;-1.49;55.16;100326.97;6281660;20;2862762;-46
2022/03/02 03:57:51;;;;;;;;;46.50;30.00;;;;;-1.22;54.53;100329.53;6284112;20;2877381;-47
2022/03/02 04:00:20;;;;;;;;;31.67;21.00;;;;;-1.15;53.94;100323.34;6282473;20;3606477;-46
2022/03/02 04:02:50;;;;;;;;;33.00;28.33;;;;;-1.06;53.99;100324.19;6285978;20;3595030;-47
2022/03/02 04:05:18;;;;;;;;;37.50;29.00;;;;;-1.33;54.90;100323.41;6279526;20;2500285;-50
2022/03/02 04:07:48;;;;;;;;;43.50;30.50;;;;;-1.74;55.83;100319.09;6281401;20;2871079;-48
2022/03/02 04:10:17;;;;;;;;;30.00;28.67;;;;;-1.18;54.88;100330.41;6283048;20;3568971;-47
2022/03/02 04:12:47;;;;;;;;;34.33;29.67;;;;;-1.09;54.40;100325.09;6313353;20;3590884;-46
2022/03/02 04:15:15;;;;;;;;;40.00;35.00;;;;;-0.77;53.36;100327.56;6286871;20;2500311;-50
2022/03/02 04:17:44;;;;;;;;;41.00;34.50;;;;;-0.94;53.38;100326.78;6280035;20;2500251;-47
2022/03/02 04:20:13;;;;;;;;;44.00;32.00;;;;;-0.90;53.64;100321.47;6279345;20;2500494;-48
2022/03/02 04:22:41;;;;;;;;;42.50;32.00;;;;;-1.08;54.22;100325.97;6283903;20;2863856;-48
2022/03/02 04:25:10;;;;;;;;;33.00;28.50;;;;;-1.21;54.51;100320.75;6278926;20;2500293;-46
2022/03/02 04:27:38;;;;;;;;;37.00;33.00;;;;;-0.93;53.97;100323.25;6280496;20;2500260;-47
2022/03/02 04:30:09;;;;;;;;;41.25;27.00;;;;;-1.02;54.37;100321.56;6282698;20;3625312;-48
2022/03/02 04:32:37;;;;;;;;;37.00;29.00;;;;;-0.67;53.64;100312.59;6312468;20;2500388;-47
2022/03/02 04:35:10;;;;;;;;;36.67;25.00;;;;;-0.88;53.83;100318.84;6284634;20;3599258;-47
2022/03/02 04:37:40;;;;;;;;;35.00;32.00;;;;;-0.95;53.54;100311.84;6311447;20;2500248;-47
2022/03/02 04:40:12;;;;;;;;;38.00;35.00;;;;;-0.80;52.84;100316.19;6278657;20;2500422;-47
2022/03/02 04:42:42;;;;;;;;;49.00;37.50;;;;;-0.85;52.52;100313.56;6283274;20;2884652;-49
2022/03/02 04:45:11;;;;;;;;;37.00;26.00;;;;;-0.86;52.49;100303.03;6278871;20;2500312;-48
2022/03/02 04:47:41;;;;;;;;;36.67;29.33;;;;;-0.61;52.39;100298.50;6283007;20;2862756;-48
2022/03/02 04:50:11;;;;;;;;;26.00;23.00;;;;;-0.71;52.62;100301.19;6312622;20;2836907;-47
2022/03/02 04:52:39;;;;;;;;;27.00;22.00;;;;;-0.76;52.99;100302.97;6280683;20;2827366;-51
2022/03/02 04:55:09;;;;;;;;;39.00;30.50;;;;;-0.90;53.29;100294.25;6277349;20;2500395;-50
2022/03/02 04:57:52;;;;;;;;;33.33;19.67;;;;;-1.06;53.59;100300.50;6281689;20;3612748;-53
2022/03/02 05:00:29;;;;;;;;;45.00;32.00;;;;;-0.53;52.42;100288.75;6308220;20;2500317;-49
2022/03/02 05:03:02;;;;;;;;;16.67;7.33;;;;;-0.48;52.04;100289.59;6281485;20;3497101;-46
2022/03/02 05:05:35;;;;;;;;;27.00;26.00;;;;;-0.46;52.22;100291.34;6317257;20;2840951;-49
2022/03/02 05:08:05;;;;;;;;;39.00;30.00;;;;;-0.72;52.03;100288.88;6278044;20;2500278;-47
2022/03/02 05:10:34;;;;;;;;;27.00;26.00;;;;;-0.82;52.99;100283.66;6314232;20;2848184;-50
2022/03/02 05:13:02;;;;;;;;;41.00;28.50;;;;;-0.86;52.96;100285.47;6284728;20;2865900;-47
2022/03/02 05:15:30;;;;;;;;;71.00;54.50;;;;;-0.70;52.70;100287.13;6279720;20;2500356;-48
2022/03/02 05:17:59;;;;;;;;;76.00;53.00;;;;;-0.81;52.76;100283.69;6282011;20;2494027;-46
2022/03/02 05:20:29;;;;;;;;;48.00;42.00;;;;;-0.28;51.56;100287.72;6284066;20;2872235;-48
2022/03/02 05:22:58;;;;;;;;;52.33;41.67;;;;;-0.20;51.20;100287.66;6283709;20;2887821;-49
2022/03/02 05:25:28;;;;;;;;;57.67;46.00;;;;;-0.28;51.64;100285.06;6316347;20;2882527;-51
2022/03/02 05:27:57;;;;;;;;;56.00;47.00;;;;;0.02;51.01;100290.09;6312038;20;2685689;-47
2022/03/02 05:30:26;;;;;;;;;50.00;42.50;;;;;-0.03;51.24;100280.47;6316012;20;2871132;-48
2022/03/02 05:32:54;;;;;;;;;43.50;37.50;;;;;-0.20;51.95;100281.50;6286031;20;2874240;-47
2022/03/02 05:35:24;;;;;;;;;62.50;46.50;;;;;-0.02;51.18;100276.94;6285121;20;2874294;-50
2022/03/02 05:37:52;;;;;;;;;60.00;46.50;;;;;-0.16;51.93;100277.94;6280685;20;2881641;-47
2022/03/02 05:40:21;;;;;;;;;42.00;35.50;;;;;0.00;51.00;100276.94;6281883;20;2508614;-49
2022/03/02 05:42:55;;;;;;;;;41.00;33.00;;;;;-0.07;51.52;100283.16;6284068;20;2500410;-49
2022/03/02 05:45:23;;;;;;;;;43.50;29.00;;;;;-0.17;52.27;100282.34;6282402;20;2500252;-48
2022/03/02 05:47:51;;;;;;;;;46.50;34.50;;;;;0.17;51.32;100280.28;6281468;20;2500331;-47
2022/03/02 05:50:20;;;;;;;;;42.00;38.00;;;;;-0.33;52.67;100284.22;6282749;20;2864848;-49
2022/03/02 05:52:48;;;;;;;;;46.00;34.00;;;;;-0.16;52.32;100278.81;6280792;20;2504423;-50
2022/03/02 05:55:16;;;;;;;;;51.00;39.00;;;;;0.30;50.97;100275.75;6276720;20;2500316;-47
2022/03/02 05:57:46;;;;;;;;;49.67;38.67;;;;;0.32;51.11;100281.03;6283473;20;2884143;-47
2022/03/02 06:00:15;;;;;;;;;38.00;36.50;;;;;0.27;51.26;100282.84;6310177;20;2860714;-48
2022/03/02 06:02:44;;;;;;;;;38.33;35.33;;;;;0.22;51.61;100280.25;6284061;20;3592970;-49
2022/03/02 06:05:14;;;;;;;;;53.50;39.50;;;;;0.35;50.87;100286.28;6284409;20;2881598;-47
2022/03/02 06:07:43;;;;;;;;;42.00;33.50;;;;;0.54;50.27;100284.31;6282683;20;2853486;-46
2022/03/02 06:10:13;;;;;;;;;45.00;35.50;;;;;0.64;50.51;100280.66;6279499;20;2500404;-47
2022/03/02 06:12:42;;;;;;;;;26.00;16.00;;;;;0.99;49.57;100277.56;6285371;20;2842045;-52
2022/03/02 06:15:12;;;;;;;;;42.00;37.50;;;;;1.00;49.62;100284.63;6278852;20;2508670;-46
2022/03/02 06:17:41;;;;;;;;;47.00;40.00;;;;;0.99;49.42;100280.22;6283063;20;2500410;-47
2022/03/02 06:20:12;;;;;;;;;44.50;34.00;;;;;0.77;50.26;100284.03;6282987;20;2866944;-48
2022/03/02 06:22:40;;;;;;;;;52.00;39.00;;;;;0.95;49.63;100278.53;6282333;20;2508723;-48
2022/03/02 06:25:11;;;;;;;;;65.00;48.00;;;;;1.18;49.21;100279.97;6284266;20;2880489;-49
2022/03/02 06:27:40;;;;;;;;;74.00;55.33;;;;;1.05;49.38;100269.59;6283945;20;2879436;-47
2022/03/02 06:30:12;;;;;;;;;70.00;47.33;;;;;1.09;49.28;100266.00;6314733;20;2882026;-48
2022/03/02 06:32:41;;;;;;;;;37.50;31.00;;;;;1.32;48.54;100272.75;6314994;20;2852325;-47
2022/03/02 06:35:11;;;;;;;;;40.00;33.00;;;;;1.49;47.80;100273.34;6284113;20;2855576;-48
2022/03/02 06:37:40;;;;;;;;;44.00;36.00;;;;;1.65;47.63;100278.41;6283682;20;2859642;-52
2022/03/02 06:40:12;;;;;;;;;32.00;26.00;;;;;1.96;46.32;100277.00;6283378;20;2840870;-52
2022/03/02 06:43:10;;;;;;;;;38.50;34.00;;;;;1.64;47.10;100274.91;6281245;20;2500351;-49
2022/03/02 06:45:55;;;;;;;;;37.00;34.00;;;;;2.05;45.90;100272.44;6280550;20;2500348;-48
2022/03/02 06:48:57;;;;;;;;;45.00;35.00;;;;;2.13;45.24;100273.19;6283098;20;2864834;-48
2022/03/02 06:51:26;;;;;;;;;53.50;43.50;;;;;2.09;46.27;100277.69;6279541;20;2526299;-48
2022/03/02 06:53:58;;;;;;;;;36.00;28.00;;;;;2.29;45.03;100274.69;6278297;20;2500367;-50
2022/03/02 06:56:38;;;;;;;;;41.00;32.00;;;;;2.72;44.80;100271.19;6278628;20;2500256;-48
2022/03/02 06:59:12;;;;;;;;;39.50;32.50;;;;;2.45;44.50;100264.69;6280290;20;2850232;-49
2022/03/02 07:01:43;;;;;;;;;36.50;29.00;;;;;2.41;43.31;100277.09;6280652;20;2502349;-49
2022/03/02 07:04:13;;;;;;;;;41.50;32.50;;;;;3.25;42.93;100273.63;6282741;20;2851335;-46
2022/03/02 07:06:43;;;;;;;;;40.33;29.33;;;;;4.99;39.97;100278.03;6281532;20;2880092;-52
2022/03/02 07:09:12;;;;;;;;;34.00;28.00;;;;;5.45;38.57;100265.97;6310292;20;2852399;-48
2022/03/02 07:11:43;;;;;;;;;36.00;31.33;;;;;5.42;38.05;100266.94;6281747;20;2861807;-51
2022/03/02 07:14:15;;;;;;;;;36.67;28.00;;;;;6.42;36.78;100271.66;6311479;20;2858694;-48
2022/03/02 07:16:44;;;;;;;;;40.67;31.67;;;;;5.94;37.27;100269.75;6316410;20;3611705;-50
2022/03/02 07:19:14;;;;;;;;;34.67;27.67;;;;;4.95;38.83;100269.28;6282606;20;2854440;-53
2022/03/02 07:21:47;;;;;;;;;33.00;30.67;;;;;4.69;39.86;100270.00;6315804;20;2854481;-54
2022/03/02 07:24:19;;;;;;;;;36.50;29.00;;;;;4.48;39.88;100271.47;6312111;20;2886689;-49
2022/03/02 07:26:54;;;;;;;;;36.00;26.00;;;;;4.09;41.77;100260.97;6284336;20;2500325;-51
2022/03/02 07:29:29;;;;;;;;;33.00;23.50;;;;;4.40;40.98;100261.06;6288527;20;2862773;-52
2022/03/02 07:31:58;;;;;;;;;32.50;29.00;;;;;4.64;40.44;100260.44;6287762;20;2853407;-51
2022/03/02 07:34:27;;;;;;;;;40.50;35.50;;;;;4.70;40.66;100261.09;6286854;20;2861703;-48
2022/03/02 07:36:55;;;;;;;;;26.50;21.50;;;;;4.65;40.29;100263.03;6285551;20;2828375;-52
2022/03/02 07:39:25;;;;;;;;;28.50;24.50;;;;;4.44;41.46;100264.47;6286087;20;2848193;-53
2022/03/02 07:41:53;;;;;;;;;24.50;21.50;;;;;4.68;41.05;100267.38;6284703;20;2500372;-52
2022/03/02 07:44:21;;;;;;;;;33.00;24.00;;;;;4.98;39.95;100269.19;6288222;20;2849210;-48
2022/03/02 07:46:50;;;;;;;;;22.00;20.00;;;;;5.11;39.45;100268.78;6289774;20;3556520;-51
2022/03/02 07:49:20;;;;;;;;;22.00;18.00;;;;;5.06;39.48;100261.84;6287472;20;3567914;-52
2022/03/02 07:51:52;;;;;;;;;25.33;21.33;;;;;5.34;39.83;100258.31;6289340;20;3569030;-51
2022/03/02 07:54:21;;;;;;;;;19.00;17.50;;;;;5.78;39.15;100268.50;6288124;20;2830514;-49
2022/03/02 07:56:51;;;;;;;;;33.50;22.00;;;;;5.25;39.54;100269.25;6285160;20;2851323;-48
2022/03/02 07:59:21;;;;;;;;;25.00;20.00;;;;;5.63;38.73;100264.53;6285571;20;2828397;-48
2022/03/02 08:01:49;;;;;;;;;21.00;20.50;;;;;5.58;38.96;100266.47;6290087;20;2823218;-48
2022/03/02 08:04:18;;;;;;;;;19.33;15.67;;;;;5.24;39.04;100260.41;6283918;20;3556547;-48
2022/03/02 08:06:47;;;;;;;;;22.00;18.00;;;;;5.77;38.45;100256.97;6317502;20;3553352;-48
2022/03/02 08:09:15;;;;;;;;;23.00;18.50;;;;;6.39;37.71;100258.44;6315784;20;2824194;-50
2022/03/02 08:11:44;;;;;;;;;20.67;16.00;;;;;6.34;38.00;100263.06;6284708;20;3560691;-52
2022/03/02 08:14:18;;;;;;;;;22.25;18.00;;;;;6.15;38.59;100260.19;6360506;20;1904428;-49
2022/03/02 08:16:52;;;;;;;;;26.00;21.50;;;;;6.19;38.58;100259.16;6320001;20;2834662;-47
2022/03/02 08:19:22;;;;;;;;;19.00;16.67;;;;;5.79;39.00;100259.56;6286162;20;3545040;-47
2022/03/02 08:22:06;;;;;;;;;28.00;24.00;;;;;6.35;38.52;100249.69;6316871;20;2500293;-53
2022/03/02 08:24:42;;;;;;;;;18.67;15.33;;;;;5.47;39.41;100254.34;6288642;20;3547161;-51
2022/03/02 08:27:14;;;;;;;;;21.00;13.67;;;;;5.35;40.23;100249.44;6315813;20;3558710;-47
2022/03/02 08:29:55;;;;;;;;;15.00;13.00;;;;;5.92;41.23;100244.91;6321131;20;2809661;-47
2022/03/02 08:32:25;;;;;;;;;15.00;14.00;;;;;5.81;39.68;100239.94;6285079;20;2814972;-48
2022/03/02 08:34:54;;;;;;;;;40.50;36.50;;;;;5.61;39.73;100250.38;6316598;20;2508607;-50
2022/03/02 08:37:25;;;;;;;;;19.00;12.00;;;;;5.99;38.95;100245.63;6282447;20;3536228;-47
2022/03/02 08:39:53;;;;;;;;;42.50;36.50;;;;;5.61;40.87;100245.94;6311844;20;2491971;-48
2022/03/02 08:42:22;;;;;;;;;80.00;62.00;;;;;5.71;38.87;100246.50;6288004;20;2880443;-49
2022/03/02 08:44:50;;;;;;;;;19.00;14.00;;;;;6.19;38.74;100242.25;6283544;20;3539800;-50
2022/03/02 08:47:24;;;;;;;;;23.67;15.67;;;;;6.64;37.31;100234.44;6318532;20;3565952;-50
2022/03/02 08:49:54;;;;;;;;;14.50;9.50;;;;;6.18;36.86;100233.41;6315486;20;2781685;-49
2022/03/02 08:52:31;;;;;;;;;18.67;14.33;;;;;5.78;36.65;100228.53;6289213;20;3554454;-51
2022/03/02 08:55:10;;;;;;;;;11.50;7.00;;;;;5.71;37.03;100220.75;6334807;20;1820203;-49
2022/03/02 08:57:43;;;;;;;;;20.00;17.33;;;;;6.52;35.33;100218.88;6338229;20;2823157;-48
2022/03/02 09:00:14;;;;;;;;;19.33;13.33;;;;;6.27;34.20;100225.09;6316903;20;3549222;-47
2022/03/02 09:02:44;;;;;;;;;16.67;13.67;;;;;6.46;33.72;100208.44;6317818;20;3550259;-52
2022/03/02 09:05:12;;;;;;;;;19.50;13.00;;;;;6.33;35.01;100214.19;6319793;20;2800260;-48
2022/03/02 09:07:42;;;;;;;;;19.33;19.00;;;;;5.84;35.39;100210.53;6285601;20;3562731;-49
2022/03/02 09:10:10;;;;;;;;;21.50;20.00;;;;;6.54;34.80;100201.88;6312955;20;2500433;-49
2022/03/02 09:12:41;;;;;;;;;15.50;15.00;;;;;7.03;33.90;100191.19;6285845;20;2799415;-49
2022/03/02 09:15:09;;;;;;;;;18.00;16.00;;;;;6.96;34.17;100192.34;6286672;20;2500812;-48
2022/03/02 09:17:38;;;;;;;;;37.00;32.50;;;;;6.59;33.68;100189.25;6284335;20;2851275;-49
2022/03/02 09:20:09;;;;;;;;;43.00;33.00;;;;;6.97;34.63;100191.38;6287750;20;2866959;-51
2022/03/02 09:22:41;;;;;;;;;20.00;16.00;;;;;6.29;36.59;100185.91;6286415;20;3540851;-47
2022/03/02 09:25:11;;;;;;;;;22.80;20.00;;;;;6.39;35.97;100183.78;6307937;20;2831507;-47
2022/03/02 09:27:40;;;;;;;;;13.00;11.00;;;;;6.89;36.06;100181.00;6286493;20;3513915;-47
2022/03/02 09:30:12;;;;;;;;;15.00;11.00;;;;;7.42;35.57;100171.78;6314755;20;2811870;-52
2022/03/02 09:32:42;;;;;;;;;16.00;13.00;;;;;7.34;35.57;100168.56;6318995;20;2813793;-48
2022/03/02 09:35:15;;;;;;;;;23.00;21.00;;;;;7.37;35.44;100173.78;6288032;20;2831546;-47
2022/03/02 09:37:53;;;;;;;;;23.00;17.00;;;;;7.24;34.31;100176.06;6285349;20;3570067;-48
2022/03/02 09:40:30;;;;;;;;;11.50;6.50;;;;;6.94;35.68;100179.03;6280951;20;2769000;-51
2022/03/02 09:43:05;;;;;;;;;26.00;21.00;;;;;7.14;35.55;100180.94;6284291;20;2835667;-51
2022/03/02 09:45:35;;;;;;;;;20.00;17.00;;;;;6.95;35.37;100163.88;6289284;20;2820226;-54
2022/03/02 09:48:05;;;;;;;;;24.67;20.00;;;;;7.16;35.45;100157.72;6282896;20;3573198;-52
2022/03/02 09:50:36;;;;;;;;;14.50;14.50;;;;;7.43;34.92;100152.19;6316886;20;2804417;-53
2022/03/02 09:53:13;;;;;;;;;15.00;12.00;;;;;6.97;37.29;100156.69;6286710;20;2681546;-50
2022/03/02 09:55:44;;;;;;;;;15.00;12.00;;;;;6.70;38.97;100153.28;6284357;20;3535638;-51
2022/03/02 09:58:15;;;;;;;;;16.50;12.00;;;;;7.45;37.28;100156.53;6283942;20;2803563;-51
2022/03/02 10:00:47;;;;;;;;;14.60;12.80;;;;;7.55;36.38;100146.31;6309966;20;2788821;-50
2022/03/02 10:03:20;;;;;;;;;16.00;12.00;;;;;8.17;36.21;100152.59;6289585;20;2822287;-51
2022/03/02 10:05:53;;;;;;;;;12.14;9.00;;;;;8.30;36.09;100147.56;6326222;20;1797320;-52
2022/03/02 10:08:25;;;;;;;;;14.00;12.00;;;;;7.92;36.74;100144.75;6320078;20;2786818;-53
2022/03/02 10:10:56;;;;;;;;;14.00;10.50;;;;;7.56;37.10;100136.53;6287506;20;2780611;-50
2022/03/02 10:13:25;;;;;;;;;17.00;13.00;;;;;7.63;37.73;100130.81;6282289;20;2802377;-49
2022/03/02 10:15:58;;;;;;;;;14.67;12.00;;;;;8.63;36.29;100131.78;6284164;20;3521107;-47
2022/03/02 10:18:26;;;;;;;;;9.00;6.00;;;;;8.32;35.82;100129.59;6315224;20;2762793;-51
2022/03/02 10:21:04;;;;;;;;;29.00;29.00;;;;;8.51;36.36;100137.72;6283843;20;2851311;-48
2022/03/02 10:23:42;;;;;;;;;12.57;8.43;;;;;8.55;36.21;100120.56;6327553;20;1816983;-48
2022/03/02 10:26:29;;;;;;;;;19.00;16.67;;;;;7.67;38.18;100111.06;6316597;20;3557504;-48
2022/03/02 10:29:07;;;;;;;;;13.00;9.00;;;;;7.85;37.53;100119.25;6315197;20;2769008;-48
2022/03/02 10:31:52;;;;;;;;;11.50;9.50;;;;;7.57;38.48;100112.38;6286938;20;2758741;-50
2022/03/02 10:34:25;;;;;;;;;9.00;7.00;;;;;7.34;38.73;100109.81;6285412;20;2753366;-50
2022/03/02 10:37:17;;;;;;;;;25.00;20.33;;;;;8.38;38.13;100113.28;6284182;20;3573250;-47
2022/03/02 10:40:17;;;;;;;;;15.00;11.80;;;;;7.95;37.73;100106.31;6340252;20;2800242;-48
2022/03/02 10:43:10;;;;;;;;;67.33;48.00;;;;;8.11;37.35;100099.38;6283725;20;2873230;-48
2022/03/02 10:45:51;;;;;;;;;107.00;88.00;;;;;8.25;37.94;100093.41;6308773;20;1948281;-48
2022/03/02 10:48:46;;;;;;;;;19.00;14.50;;;;;8.27;36.44;100091.53;6282232;20;2806558;-47
2022/03/02 10:51:17;;;;;;;;;51.67;41.33;;;;;8.62;35.95;100086.38;6312215;20;2857659;-49
2022/03/02 10:53:50;;;;;;;;;68.33;50.67;;;;;8.37;36.46;100082.09;6313739;20;3630702;-47
2022/03/02 10:56:21;;;;;;;;;20.00;20.00;;;;;8.10;37.00;100085.09;6311635;20;2831475;-50
2022/03/02 10:58:51;;;;;;;;;83.33;63.00;;;;;8.21;37.12;100079.28;6283706;20;3659579;-49
2022/03/02 11:01:23;;;;;;;;;140.75;118.75;;;;;8.00;37.37;100072.22;6314601;20;4493929;-49
2022/03/02 11:03:54;;;;;;;;;72.00;53.33;;;;;8.10;37.48;100069.06;6322125;20;2896138;-49
2022/03/02 11:06:24;;;;;;;;;16.00;11.50;;;;;7.57;36.83;100055.41;6319562;20;2500353;-48
2022/03/02 11:09:00;;;;;;;;;8.00;3.50;;;;;7.42;37.94;100063.13;6291661;20;2749202;-48
2022/03/02 11:11:35;;;;;;;;;53.00;42.00;;;;;8.55;37.11;100062.56;6284790;20;2485667;-52
2022/03/02 11:14:09;;;;;;;;;121.75;96.50;;;;;8.63;37.80;100064.88;6287686;20;4465927;-51